createdAt,value
2023-03-02T00:03:18.027Z,8.26
2023-03-02T00:06:13.577Z,8.24
2023-03-02T00:09:13.064Z,8.54
2023-03-02T00:14:53.371Z,8.42
2023-03-02T00:21:38.593Z,8.16
2023-03-02T00:24:12.750Z,8.55
2023-03-02T00:26:52.554Z,9.06
2023-03-02T00:29:26.466Z,9.00
2023-03-02T00:32:17.602Z,8.98
2023-03-02T00:34:54.902Z,8.60
2023-03-02T00:37:46.993Z,8.75
2023-03-02T00:40:45.805Z,8.93
2023-03-02T00:43:21.395Z,8.52
2023-03-02T00:45:53.450Z,8.92
2023-03-02T00:48:26.771Z,8.35
2023-03-02T00:51:14.325Z,8.64
2023-03-02T00:53:50.510Z,7.82
2023-03-02T00:56:26.478Z,7.95
2023-03-02T00:59:40.921Z,8.95
2023-03-02T01:02:29.044Z,8.37
2023-03-02T01:06:26.963Z,8.62
2023-03-02T01:17:03.581Z,8.59
2023-03-02T01:20:25.548Z,8.74
2023-03-02T01:29:47.417Z,8.42
2023-03-02T01:34:19.071Z,8.79
2023-03-02T01:36:54.305Z,8.87
2023-03-02T01:39:36.650Z,9.08
2023-03-02T01:42:10.741Z,9.32
2023-03-02T01:44:52.716Z,9.46
2023-03-02T01:47:36.808Z,9.22
2023-03-02T01:50:26.627Z,9.49
2023-03-02T01:53:09.703Z,9.47
2023-03-02T01:55:47.098Z,9.13
2023-03-02T01:58:25.103Z,9.00
2023-03-02T02:01:02.203Z,9.38
2023-03-02T02:03:36.746Z,9.38
2023-03-02T02:06:34.850Z,9.13
2023-03-02T02:09:12.889Z,9.12
2023-03-02T02:11:49.244Z,9.46
2023-03-02T02:14:20.756Z,9.20
2023-03-02T02:16:54.390Z,9.31
2023-03-02T02:20:14.146Z,9.49
2023-03-02T02:22:49.209Z,9.18
2023-03-02T02:25:47.086Z,9.19
2023-03-02T02:28:24.805Z,9.21
2023-03-02T02:31:25.344Z,9.52
2023-03-02T02:34:07.998Z,9.46
2023-03-02T02:36:49.601Z,9.02
2023-03-02T02:39:26.502Z,9.33
2023-03-02T02:42:13.254Z,9.28
2023-03-02T02:44:45.858Z,9.45
2023-03-02T02:47:22.913Z,9.48
2023-03-02T02:50:01.241Z,9.46
2023-03-02T02:52:36.368Z,9.54
2023-03-02T02:55:25.366Z,9.66
2023-03-02T02:58:14.858Z,9.39
2023-03-02T03:00:46.610Z,9.41
2023-03-02T03:03:37.201Z,9.57
2023-03-02T03:06:15.122Z,9.47
2023-03-02T03:08:48.326Z,9.69
2023-03-02T03:11:34.366Z,9.70
2023-03-02T03:14:34.541Z,9.47
2023-03-02T03:17:14.012Z,9.64
2023-03-02T03:19:54.485Z,9.18
2023-03-02T03:22:39.133Z,9.94
2023-03-02T03:25:17.734Z,9.79
2023-03-02T03:27:50.024Z,9.77
2023-03-02T03:30:24.735Z,9.98
2023-03-02T03:32:56.649Z,9.78
2023-03-02T03:35:34.149Z,9.74
2023-03-02T03:38:09.389Z,9.78
2023-03-02T03:40:39.841Z,9.65
2023-03-02T03:43:11.031Z,9.92
2023-03-02T03:45:47.192Z,9.93
2023-03-02T03:48:17.327Z,9.89
2023-03-02T03:50:46.611Z,9.95
2023-03-02T03:53:17.517Z,9.96
2023-03-02T03:55:46.465Z,9.81
2023-03-02T03:58:17.477Z,9.90
2023-03-02T04:00:49.577Z,9.34
2023-03-02T04:03:22.210Z,9.90
2023-03-02T04:05:54.238Z,9.36
2023-03-02T04:08:28.035Z,9.44
2023-03-02T04:11:02.376Z,9.77
2023-03-02T04:13:34.099Z,9.98
2023-03-02T04:16:05.823Z,9.87
2023-03-02T04:18:35.131Z,9.57
2023-03-02T04:21:08.959Z,10.25
2023-03-02T04:23:38.732Z,9.48
2023-03-02T04:26:10.831Z,9.54
2023-03-02T04:28:42.443Z,9.01
2023-03-02T04:31:13.536Z,9.14
2023-03-02T04:33:49.008Z,9.00
2023-03-02T04:36:20.979Z,9.26
2023-03-02T04:38:54.532Z,9.21
2023-03-02T04:41:37.880Z,9.51
2023-03-02T04:44:09.185Z,9.16
2023-03-02T04:46:39.202Z,9.15
2023-03-02T04:49:11.186Z,9.33
2023-03-02T04:51:49.002Z,9.53
2023-03-02T04:54:26.506Z,9.43
2023-03-02T04:57:02.196Z,9.28
2023-03-02T04:59:33.950Z,9.25
2023-03-02T05:02:08.970Z,9.29
2023-03-02T05:04:42.728Z,9.73
2023-03-02T05:07:16.313Z,9.86
2023-03-02T05:09:46.291Z,10.13
2023-03-02T05:12:18.401Z,10.00
2023-03-02T05:14:50.555Z,9.66
2023-03-02T05:17:22.039Z,10.00
2023-03-02T05:19:50.896Z,9.96
2023-03-02T05:22:25.490Z,9.79
2023-03-02T05:25:00.870Z,10.29
2023-03-02T05:27:35.253Z,9.94
2023-03-02T05:30:08.802Z,10.26
2023-03-02T05:32:41.827Z,9.63
2023-03-02T05:35:14.343Z,9.58
2023-03-02T05:37:47.018Z,10.12
2023-03-02T05:40:25.470Z,10.27
2023-03-02T05:42:56.138Z,9.80
2023-03-02T05:45:43.299Z,9.84
2023-03-02T05:48:14.765Z,9.78
2023-03-02T05:50:46.590Z,9.93
2023-03-02T05:53:16.791Z,10.13
2023-03-02T05:55:46.243Z,9.82
2023-03-02T05:58:21.830Z,10.02
2023-03-02T06:00:51.026Z,10.33
2023-03-02T06:03:27.685Z,10.09
2023-03-02T06:06:06.030Z,10.21
2023-03-02T06:08:42.182Z,10.34
2023-03-02T06:11:12.743Z,9.94
2023-03-02T06:13:43.141Z,10.27
2023-03-02T06:16:14.742Z,10.45
2023-03-02T06:18:49.536Z,10.42
2023-03-02T06:21:18.811Z,10.34
2023-03-02T06:23:50.754Z,10.19
2023-03-02T06:26:22.235Z,9.99
2023-03-02T06:28:53.981Z,10.33
2023-03-02T06:31:24.775Z,10.31
2023-03-02T06:33:54.792Z,10.23
2023-03-02T06:36:34.194Z,10.54
2023-03-02T06:39:07.906Z,9.96
2023-03-02T06:41:38.711Z,10.16
2023-03-02T06:44:13.192Z,10.20
2023-03-02T06:46:46.346Z,10.37
2023-03-02T06:49:19.055Z,10.32
2023-03-02T06:51:54.718Z,10.18
2023-03-02T06:54:34.210Z,10.33
2023-03-02T06:57:06.181Z,9.55
2023-03-02T06:59:38.029Z,9.66
2023-03-02T07:02:08.470Z,10.24
2023-03-02T07:04:41.744Z,10.30
2023-03-02T07:07:13.512Z,10.09
2023-03-02T07:09:45.496Z,10.10
2023-03-02T07:12:15.233Z,10.58
2023-03-02T07:14:46.625Z,10.45
2023-03-02T07:17:21.691Z,10.08
2023-03-02T07:19:50.867Z,10.00
2023-03-02T07:22:22.631Z,10.29
2023-03-02T07:24:53.912Z,10.34
2023-03-02T07:27:26.465Z,10.34
2023-03-02T07:30:05.325Z,10.54
2023-03-02T07:32:37.608Z,10.27
2023-03-02T07:35:09.148Z,10.31
2023-03-02T07:37:45.770Z,9.93
2023-03-02T07:40:19.486Z,9.99
2023-03-02T07:42:53.071Z,10.28
2023-03-02T07:45:26.584Z,10.22
2023-03-02T07:48:10.292Z,10.14
2023-03-02T07:50:41.118Z,10.13
2023-03-02T07:53:11.194Z,10.13
2023-03-02T07:55:45.997Z,10.38
2023-03-02T07:58:16.293Z,10.10
2023-03-02T08:00:47.268Z,10.29
2023-03-02T08:03:21.175Z,10.23
2023-03-02T08:05:54.528Z,10.26
2023-03-02T08:08:39.016Z,10.26
2023-03-02T08:11:18.911Z,10.32
2023-03-02T08:13:59.063Z,10.47
2023-03-02T08:16:37.700Z,10.55
2023-03-02T08:19:13.210Z,10.37
2023-03-02T08:21:42.583Z,10.32
2023-03-02T08:24:16.523Z,10.20
2023-03-02T08:26:46.281Z,10.30
2023-03-02T08:29:17.522Z,10.42
2023-03-02T08:31:46.756Z,10.53
2023-03-02T08:34:17.469Z,10.43
2023-03-02T08:36:48.493Z,10.48
2023-03-02T08:39:21.010Z,10.48
2023-03-02T08:41:56.560Z,10.46
2023-03-02T08:44:38.384Z,10.87
2023-03-02T08:47:10.464Z,10.32
2023-03-02T08:49:45.141Z,10.58
2023-03-02T08:52:16.886Z,10.36
2023-03-02T08:54:48.966Z,10.69
2023-03-02T08:57:20.978Z,10.37
2023-03-02T08:59:54.116Z,10.50
2023-03-02T09:02:24.572Z,10.60
2023-03-02T09:04:55.241Z,10.62
2023-03-02T09:07:25.540Z,10.48
2023-03-02T09:09:54.864Z,10.45
2023-03-02T09:12:35.171Z,10.87
2023-03-02T09:15:08.702Z,10.50
2023-03-02T09:17:45.654Z,10.53
2023-03-02T09:20:16.598Z,10.58
2023-03-02T09:22:53.195Z,10.55
2023-03-02T09:25:31.810Z,10.56
2023-03-02T09:28:14.652Z,10.74
2023-03-02T09:31:05.465Z,10.67
2023-03-02T09:33:39.150Z,10.51
2023-03-02T09:36:13.944Z,10.74
2023-03-02T09:38:46.767Z,10.74
2023-03-02T09:41:24.359Z,10.77
2023-03-02T09:44:44.323Z,10.76
2023-03-02T09:47:41.416Z,10.88
2023-03-02T09:50:46.820Z,10.66
2023-03-02T09:54:11.268Z,10.52
2023-03-02T09:56:46.574Z,10.65
2023-03-02T09:59:42.545Z,10.36
2023-03-02T10:02:40.728Z,10.57
2023-03-02T10:05:18.064Z,10.46
2023-03-02T10:07:53.524Z,10.56
2023-03-02T10:11:07.252Z,10.47
2023-03-02T10:13:47.326Z,10.38
2023-03-02T10:16:43.231Z,10.63
2023-03-02T10:19:49.477Z,10.46
2023-03-02T10:22:40.466Z,10.68
2023-03-02T10:25:17.665Z,10.51
2023-03-02T10:28:10.856Z,10.81
2023-03-02T10:30:46.230Z,10.60
2023-03-02T10:33:23.944Z,10.83
2023-03-02T10:35:59.187Z,10.77
2023-03-02T10:38:34.578Z,10.53
2023-03-02T10:41:16.345Z,10.48
2023-03-02T10:43:50.458Z,10.61
2023-03-02T10:46:23.115Z,10.42
2023-03-02T10:49:02.370Z,10.50
2023-03-02T10:51:49.635Z,10.67
2023-03-02T10:54:26.534Z,10.53
2023-03-02T10:57:37.371Z,10.28
2023-03-02T11:00:26.853Z,10.51
2023-03-02T11:03:23.025Z,10.43
2023-03-02T11:06:01.424Z,10.22
2023-03-02T11:08:37.441Z,10.17
2023-03-02T11:11:34.188Z,10.43
2023-03-02T11:14:18.539Z,10.36
2023-03-02T11:16:51.005Z,10.04
2023-03-02T11:19:42.586Z,10.30
2023-03-02T11:22:42.802Z,10.65
2023-03-02T11:25:26.974Z,10.80
2023-03-02T11:28:41.709Z,10.37
2023-03-02T11:31:46.640Z,10.11
2023-03-02T11:34:25.714Z,10.40
2023-03-02T11:37:17.170Z,10.61
2023-03-02T11:40:25.492Z,10.45
2023-03-02T11:43:08.908Z,10.27
2023-03-02T11:45:57.366Z,10.70
2023-03-02T11:48:53.087Z,10.48
2023-03-02T11:51:37.899Z,10.41
2023-03-02T11:54:35.935Z,10.45
2023-03-02T11:57:07.350Z,10.63
2023-03-02T11:59:41.219Z,10.70
2023-03-02T12:02:14.277Z,10.92
2023-03-02T12:04:49.395Z,10.95
2023-03-02T12:07:26.653Z,11.04
2023-03-02T12:10:33.959Z,11.11
2023-03-02T12:13:14.953Z,10.96
2023-03-02T12:16:02.964Z,10.76
2023-03-02T12:18:46.622Z,9.61
2023-03-02T12:21:33.891Z,9.75
2023-03-02T12:24:05.098Z,9.72
2023-03-02T12:26:41.586Z,10.05
2023-03-02T12:29:17.233Z,9.79
2023-03-02T12:32:02.033Z,10.06
2023-03-02T12:35:12.691Z,9.88
2023-03-02T12:38:09.320Z,10.57
2023-03-02T12:41:13.202Z,11.15
2023-03-02T12:44:10.875Z,11.04
2023-03-02T12:46:51.408Z,11.14
2023-03-02T12:50:01.441Z,10.81
2023-03-02T12:52:45.457Z,11.08
2023-03-02T12:55:23.041Z,10.92
2023-03-02T12:58:04.972Z,10.91
2023-03-02T13:01:07.164Z,11.10
2023-03-02T13:03:54.494Z,10.99
2023-03-02T13:06:38.734Z,10.91
2023-03-02T13:09:16.848Z,10.53
2023-03-02T13:11:51.053Z,10.42
2023-03-02T13:14:42.420Z,10.57
2023-03-02T13:17:27.028Z,10.96
2023-03-02T13:20:07.316Z,10.78
2023-03-02T13:22:54.846Z,11.10
2023-03-02T13:26:05.899Z,10.71
2023-03-02T13:28:37.253Z,10.80
2023-03-02T13:31:25.423Z,10.82
2023-03-02T13:34:03.304Z,10.84
2023-03-02T13:40:34.469Z,10.84
2023-03-02T13:43:35.292Z,10.79
2023-03-02T13:46:13.322Z,10.49
2023-03-02T13:49:09.706Z,10.78
2023-03-02T13:51:46.825Z,11.03
2023-03-02T13:54:34.723Z,11.00
2023-03-02T13:57:07.100Z,11.30
2023-03-02T13:59:38.179Z,10.81
2023-03-02T14:02:37.385Z,11.53
2023-03-02T14:05:09.569Z,10.88
2023-03-02T14:07:38.746Z,10.93
2023-03-02T14:10:11.062Z,11.21
2023-03-02T14:12:46.229Z,11.00
2023-03-02T14:15:18.659Z,10.98
2023-03-02T14:17:52.932Z,10.75
2023-03-02T14:20:22.920Z,10.87
2023-03-02T14:22:52.770Z,10.77
2023-03-02T14:25:22.669Z,10.95
2023-03-02T14:27:53.628Z,10.70
2023-03-02T14:30:24.999Z,11.20
2023-03-02T14:32:57.541Z,10.74
2023-03-02T14:35:33.402Z,10.43
2023-03-02T14:38:06.389Z,10.37
2023-03-02T14:40:40.913Z,10.53
2023-03-02T14:43:13.213Z,10.66
2023-03-02T14:45:44.913Z,10.47
2023-03-02T14:48:15.277Z,10.36
2023-03-02T14:50:51.458Z,10.49
2023-03-02T14:53:33.595Z,10.75
2023-03-02T14:56:03.121Z,9.86
2023-03-02T14:58:35.413Z,9.64
2023-03-02T15:01:11.455Z,10.41
2023-03-02T15:03:44.779Z,10.64
2023-03-02T15:06:34.510Z,10.87
2023-03-02T15:09:06.433Z,10.85
2023-03-02T15:11:38.400Z,10.41
2023-03-02T15:14:10.723Z,10.71
2023-03-02T15:16:41.404Z,10.60
2023-03-02T15:19:12.747Z,10.50
2023-03-02T15:21:46.144Z,10.61
2023-03-02T15:24:14.980Z,10.59
2023-03-02T15:26:45.784Z,10.12
2023-03-02T15:29:15.054Z,9.98
2023-03-02T15:31:46.577Z,10.09
2023-03-02T15:34:18.236Z,10.05
2023-03-02T15:36:46.835Z,10.73
2023-03-02T15:39:18.651Z,9.84
2023-03-02T15:41:48.774Z,10.03
2023-03-02T15:44:22.664Z,10.19
2023-03-02T15:46:56.783Z,10.38
2023-03-02T15:49:31.379Z,10.18
2023-03-02T15:52:02.417Z,9.70
2023-03-02T15:54:33.083Z,10.31
2023-03-02T15:57:02.921Z,9.92
2023-03-02T15:59:34.858Z,9.79
2023-03-02T16:02:06.534Z,10.38
2023-03-02T16:04:44.946Z,10.38
2023-03-02T16:07:13.992Z,10.07
2023-03-02T16:09:42.906Z,9.18
2023-03-02T16:12:13.318Z,9.63
2023-03-02T16:14:42.545Z,10.06
2023-03-02T16:17:12.639Z,10.20
2023-03-02T16:19:42.480Z,9.73
2023-03-02T16:22:12.336Z,10.04
2023-03-02T16:24:42.128Z,9.64
2023-03-02T16:27:12.169Z,9.39
2023-03-02T16:29:40.618Z,9.71
2023-03-02T16:32:45.279Z,9.38
2023-03-02T16:35:14.868Z,9.50
2023-03-02T16:37:46.138Z,9.70
2023-03-02T16:40:17.873Z,9.90
2023-03-02T16:42:47.129Z,9.71
2023-03-02T16:45:17.770Z,9.78
2023-03-02T16:47:47.732Z,9.48
2023-03-02T16:50:21.208Z,9.75
2023-03-02T16:52:54.222Z,9.72
2023-03-02T16:55:26.086Z,9.82
2023-03-02T16:58:38.793Z,9.31
2023-03-02T17:01:12.592Z,9.97
2023-03-02T17:03:42.888Z,8.93
2023-03-02T17:06:17.643Z,9.54
2023-03-02T17:08:47.376Z,9.14
2023-03-02T17:11:17.845Z,9.40
2023-03-02T17:13:46.651Z,9.84
2023-03-02T17:16:17.844Z,9.34
2023-03-02T17:18:48.231Z,9.43
2023-03-02T17:21:20.420Z,9.50
2023-03-02T17:23:50.211Z,9.78
2023-03-02T17:26:19.186Z,9.70
2023-03-02T17:28:50.271Z,8.75
2023-03-02T17:31:19.460Z,9.36
2023-03-02T17:33:50.640Z,8.78
2023-03-02T17:36:22.725Z,9.39
2023-03-02T17:38:52.934Z,8.98
2023-03-02T17:41:22.981Z,9.16
2023-03-02T17:43:53.709Z,8.95
2023-03-02T17:46:26.606Z,8.48
2023-03-02T17:49:05.116Z,8.67
2023-03-02T17:51:35.419Z,8.80
2023-03-02T17:54:06.611Z,9.07
2023-03-02T17:56:37.753Z,9.19
2023-03-02T17:59:08.686Z,8.78
2023-03-02T18:01:40.357Z,8.41
2023-03-02T18:04:10.869Z,9.18
2023-03-02T18:06:42.778Z,8.52
2023-03-02T18:09:13.600Z,8.23
2023-03-02T18:11:44.014Z,8.59
2023-03-02T18:14:17.870Z,8.49
2023-03-02T18:16:48.599Z,8.20
2023-03-02T18:19:18.198Z,8.98
2023-03-02T18:21:49.787Z,8.50
2023-03-02T18:24:18.774Z,8.62
2023-03-02T18:26:50.710Z,8.13
2023-03-02T18:29:23.412Z,8.09
2023-03-02T18:31:54.365Z,7.97
2023-03-02T18:34:24.859Z,7.90
2023-03-02T18:36:54.986Z,7.81
2023-03-02T18:39:30.836Z,7.70
2023-03-02T18:42:03.017Z,7.98
2023-03-02T18:44:33.408Z,7.94
2023-03-02T18:47:20.615Z,7.84
2023-03-02T18:50:22.213Z,7.45
2023-03-02T18:52:54.605Z,7.78
2023-03-02T18:55:31.003Z,8.52
2023-03-02T18:58:05.203Z,8.23
2023-03-02T19:00:38.085Z,8.26
2023-03-02T19:03:06.998Z,7.28
2023-03-02T19:05:41.810Z,7.83
2023-03-02T19:08:23.166Z,8.10
2023-03-02T19:11:13.941Z,8.08
2023-03-02T19:13:50.096Z,7.98
2023-03-02T19:16:19.244Z,8.10
2023-03-02T19:18:50.602Z,8.77
2023-03-02T19:21:30.286Z,8.23
2023-03-02T19:24:03.189Z,7.63
2023-03-02T19:26:34.108Z,7.88
2023-03-02T19:29:45.388Z,7.79
2023-03-02T19:32:16.963Z,8.17
2023-03-02T19:34:53.228Z,8.09
2023-03-02T19:40:15.040Z,7.74
2023-03-02T19:42:47.197Z,7.42
2023-03-02T19:45:23.080Z,7.80
2023-03-02T19:47:56.507Z,8.19
2023-03-02T19:50:34.169Z,7.28
2023-03-02T19:55:54.289Z,7.88
2023-03-02T19:58:30.848Z,8.18
2023-03-02T20:01:05.323Z,8.05
2023-03-02T20:06:53.034Z,6.55
2023-03-02T20:09:27.080Z,7.59
2023-03-02T20:12:02.950Z,7.32
2023-03-02T20:14:34.935Z,7.98
2023-03-02T20:17:08.732Z,7.92
2023-03-02T20:19:41.117Z,8.18
2023-03-02T20:22:13.334Z,7.72
2023-03-02T20:24:47.452Z,7.80
2023-03-02T20:27:34.268Z,7.61
2023-03-02T20:30:25.122Z,6.87
2023-03-02T20:33:35.039Z,6.70
2023-03-02T20:36:08.924Z,7.29
2023-03-02T20:38:42.608Z,7.76
2023-03-02T20:41:12.572Z,6.04
2023-03-02T20:43:44.417Z,7.55
2023-03-02T20:46:31.568Z,6.62
2023-03-02T20:49:04.891Z,7.33
2023-03-02T20:51:35.516Z,7.80
2023-03-02T20:54:06.612Z,7.49
2023-03-02T20:56:36.559Z,7.07
2023-03-02T20:59:06.793Z,7.47
2023-03-02T21:01:40.782Z,7.53
2023-03-02T21:04:11.141Z,7.28
2023-03-02T21:06:44.434Z,7.26
2023-03-02T21:09:14.192Z,7.17
2023-03-02T21:11:42.986Z,7.49
2023-03-02T21:14:14.696Z,7.57
2023-03-02T21:16:46.551Z,7.36
2023-03-02T21:19:19.100Z,7.59
2023-03-02T21:21:50.772Z,7.83
2023-03-02T21:24:22.041Z,7.76
2023-03-02T21:26:54.814Z,7.39
2023-03-02T21:29:27.596Z,7.17
2023-03-02T21:32:01.291Z,7.15
2023-03-02T21:34:32.797Z,7.80
2023-03-02T21:37:04.130Z,7.14
2023-03-02T21:39:34.221Z,7.67
2023-03-02T21:42:05.148Z,7.46
2023-03-02T21:44:34.535Z,7.22
2023-03-02T21:47:04.994Z,7.50
2023-03-02T21:49:34.189Z,7.68
2023-03-02T21:52:02.924Z,7.13
2023-03-02T21:54:33.775Z,7.33
2023-03-02T21:57:02.891Z,6.99
2023-03-02T21:59:33.286Z,7.19
2023-03-02T22:02:03.268Z,7.05
2023-03-02T22:04:35.515Z,7.40
2023-03-02T22:07:05.494Z,7.17
2023-03-02T22:09:34.508Z,6.95
2023-03-02T22:12:12.716Z,6.84
2023-03-02T22:14:42.914Z,6.96
2023-03-02T22:17:32.172Z,6.82
2023-03-02T22:20:15.691Z,6.84
2023-03-02T22:22:46.771Z,6.81
2023-03-02T22:25:20.622Z,6.71
2023-03-02T22:27:50.262Z,7.01
2023-03-02T22:30:25.666Z,6.58
2023-03-02T22:33:02.078Z,6.49
2023-03-02T22:35:32.657Z,6.93
2023-03-02T22:38:16.907Z,6.18
2023-03-02T22:40:47.318Z,6.51
2023-03-02T22:43:22.361Z,6.69
2023-03-02T22:45:51.286Z,6.46
2023-03-02T22:48:24.998Z,6.41
2023-03-02T22:50:54.299Z,6.85
2023-03-02T22:53:38.183Z,6.37
2023-03-02T22:56:26.734Z,6.50
2023-03-02T22:59:04.390Z,6.54
2023-03-02T23:01:43.606Z,6.35
2023-03-02T23:04:25.475Z,6.34
2023-03-02T23:07:03.601Z,6.06
2023-03-02T23:09:35.198Z,6.33
2023-03-02T23:12:34.117Z,5.85
2023-03-02T23:15:18.806Z,6.21
2023-03-02T23:17:49.708Z,6.55
2023-03-02T23:20:20.654Z,6.67
2023-03-02T23:22:50.596Z,6.42
2023-03-02T23:25:20.512Z,6.39
2023-03-02T23:27:49.876Z,6.45
2023-03-02T23:30:22.340Z,6.54
2023-03-02T23:32:55.032Z,6.74
2023-03-02T23:35:33.224Z,6.50
2023-03-02T23:38:05.952Z,6.73
2023-03-02T23:40:36.606Z,6.42
2023-03-02T23:43:07.652Z,6.58
2023-03-02T23:45:39.164Z,6.29
2023-03-02T23:48:10.463Z,6.62
2023-03-02T23:50:39.175Z,6.64
2023-03-02T23:53:09.640Z,6.77
2023-03-02T23:55:45.102Z,6.50
2023-03-02T23:58:14.674Z,6.43
